Time;durP1;ratioP1;P1;durP2;ratioP2;P2;SDS_P1;SDS_P2;PMS_P1;PMS_P2;Temp;Humidity;BMP_temperature;BMP_pressure;BME280_temperature;BME280_humidity;BME280_pressure;Samples;Min_cycle;Max_cycle;Signal;HPM_P1;HPM_P2
2023/03/30 00:00:55;;;;;;;10.03;4.50;;;;;;;10.92;86.13;100062.72;5055807;28;20208;-84
2023/03/30 00:03:25;;;;;;;16.47;8.27;;;;;;;10.93;86.18;100076.84;5055671;28;20721;-84
2023/03/30 00:05:55;;;;;;;8.63;4.77;;;;;;;10.92;85.95;100069.84;5057555;28;20218;-84
2023/03/30 00:08:26;;;;;;;6.80;4.00;;;;;;;10.92;85.60;100073.38;5055932;28;20255;-84
2023/03/30 00:10:54;;;;;;;6.33;4.27;;;;;;;10.91;85.79;100073.50;5054914;28;20260;-85
2023/03/30 00:13:21;;;;;;;5.20;3.90;;;;;;;10.89;85.58;100068.25;5055123;28;20259;-84
2023/03/30 00:15:49;;;;;;;6.33;4.10;;;;;;;10.90;85.46;100069.13;5055131;28;20212;-84
2023/03/30 00:18:15;;;;;;;5.23;3.97;;;;;;;10.89;85.42;100068.25;5055077;28;20605;-84
2023/03/30 00:20:43;;;;;;;5.47;3.93;;;;;;;10.88;85.14;100063.91;5055003;28;20217;-84
2023/03/30 00:23:10;;;;;;;5.60;3.60;;;;;;;10.87;85.24;100059.53;5054691;28;20693;-84
2023/03/30 00:25:37;;;;;;;5.07;3.97;;;;;;;10.87;84.97;100043.56;5054261;28;20321;-83
2023/03/30 00:28:03;;;;;;;4.17;3.63;;;;;;;10.87;84.89;100035.56;5053684;28;20200;-84
2023/03/30 00:30:30;;;;;;;5.03;3.80;;;;;;;10.86;84.85;100041.84;5053618;28;20292;-84
2023/03/30 00:32:56;;;;;;;5.60;3.80;;;;;;;10.84;84.96;100034.94;5053661;28;20732;-84
2023/03/30 00:35:25;;;;;;;6.37;4.10;;;;;;;10.83;84.83;100022.56;5053863;28;20212;-84
2023/03/30 00:37:53;;;;;;;7.60;5.13;;;;;;;10.81;84.58;100021.84;5053781;28;20288;-84
2023/03/30 00:40:21;;;;;;;7.20;5.00;;;;;;;10.78;84.49;100013.09;5053145;28;20205;-84
2023/03/30 00:42:48;;;;;;;6.93;4.57;;;;;;;10.74;84.69;100006.31;5053203;28;20230;-84
2023/03/30 00:45:21;;;;;;;5.47;4.40;;;;;;;10.71;84.53;99992.38;5053056;28;20700;-84
2023/03/30 00:47:58;;;;;;;6.90;4.57;;;;;;;10.67;84.64;99998.91;5052860;28;20182;-85
2023/03/30 00:50:33;;;;;;;5.90;4.47;;;;;;;10.65;84.79;100011.47;5053323;28;20634;-85
2023/03/30 00:53:07;;;;;;;6.73;3.97;;;;;;;10.61;84.87;100005.50;5053266;28;20661;-84
2023/03/30 00:55:36;;;;;;;3.90;3.50;;;;;;;10.55;84.68;99995.34;5053420;28;20194;-84
2023/03/30 00:58:04;;;;;;;5.43;3.63;;;;;;;10.51;84.98;99999.19;5053278;28;20205;-85
2023/03/30 01:00:32;;;;;;;4.87;4.37;;;;;;;10.49;84.93;99998.44;5053264;28;20206;-84
2023/03/30 01:03:02;;;;;;;4.57;3.83;;;;;;;10.43;84.90;99981.09;5052744;28;20226;-84
2023/03/30 01:05:29;;;;;;;6.87;4.00;;;;;;;10.39;85.43;99989.44;5053634;28;20225;-84
2023/03/30 01:07:57;;;;;;;6.10;4.20;;;;;;;10.36;85.42;99984.31;5053131;28;20638;-85
2023/03/30 01:10:25;;;;;;;6.63;4.47;;;;;;;10.32;85.53;99981.03;5053308;28;20199;-84
2023/03/30 01:12:52;;;;;;;7.03;4.13;;;;;;;10.27;85.50;99980.50;5053009;28;20229;-84
2023/03/30 01:15:19;;;;;;;6.43;4.50;;;;;;;10.24;85.87;99972.75;5052865;28;20650;-84
2023/03/30 01:18:26;;;;;;;7.37;4.67;;;;;;;10.17;85.61;99968.81;5052473;28;20202;-84
2023/03/30 01:21:13;;;;;;;8.20;4.33;;;;;;;10.13;85.92;99972.66;4990504;28;20199;-84
2023/03/30 01:24:14;;;;;;;5.63;4.07;;;;;;;10.07;86.09;99963.28;4990197;28;20223;-84
2023/03/30 01:26:54;;;;;;;4.80;4.20;;;;;;;10.03;86.44;99967.13;5043785;28;20321;-84
2023/03/30 01:29:30;;;;;;;6.10;4.57;;;;;;;10.01;86.75;99960.25;5052405;28;20213;-84
2023/03/30 01:32:29;;;;;;;5.83;4.20;;;;;;;9.97;86.89;99956.94;5053338;28;20194;-84
2023/03/30 01:35:14;;;;;;;5.77;4.27;;;;;;;9.99;87.11;99956.84;5052681;28;20202;-84
2023/03/30 01:38:08;;;;;;;5.13;4.00;;;;;;;9.96;88.04;99944.59;5052521;28;20243;-84
2023/03/30 01:40:41;;;;;;;5.47;3.63;;;;;;;9.96;88.03;99947.25;5053121;28;20198;-84
2023/03/30 01:43:17;;;;;;;5.53;3.67;;;;;;;9.95;88.95;99942.06;5052568;28;20229;-84
2023/03/30 01:45:47;;;;;;;5.10;3.13;;;;;;;9.96;89.41;99927.78;5052678;28;20685;-84
2023/03/30 01:48:19;;;;;;;3.83;3.00;;;;;;;9.99;89.96;99923.09;5052939;28;20189;-84
2023/03/30 01:50:51;;;;;;;5.03;2.90;;;;;;;10.05;90.08;99924.44;5052630;28;20205;-84
2023/03/30 01:53:27;;;;;;;5.53;3.10;;;;;;;10.09;90.33;99907.31;5053070;28;20264;-84
2023/03/30 01:56:00;;;;;;;4.43;2.93;;;;;;;10.13;90.20;99903.47;5052609;28;20186;-84
2023/03/30 01:58:31;;;;;;;4.77;2.90;;;;;;;10.17;90.30;99907.63;5053183;28;20190;-84
2023/03/30 02:01:01;;;;;;;4.53;2.90;;;;;;;10.20;90.54;99903.91;5052712;28;20182;-84
2023/03/30 02:03:30;;;;;;;3.93;3.00;;;;;;;10.20;90.96;99903.91;5052399;28;20237;-83
2023/03/30 02:06:02;;;;;;;6.17;2.90;;;;;;;10.24;90.77;99908.88;5052220;28;20225;-84
2023/03/30 02:08:32;;;;;;;4.97;2.77;;;;;;;10.28;91.08;99905.03;5052644;28;20206;-84
2023/03/30 02:11:00;;;;;;;6.30;3.33;;;;;;;10.32;90.91;99897.69;5052678;28;20214;-85
2023/03/30 02:13:28;;;;;;;6.13;3.10;;;;;;;10.34;90.36;99895.75;5052516;28;20617;-84
2023/03/30 02:15:59;;;;;;;3.83;2.40;;;;;;;10.34;90.32;99901.94;5054047;28;20210;-85
2023/03/30 02:18:25;;;;;;;5.60;2.57;;;;;;;10.35;90.15;99900.97;5054911;28;20252;-83
2023/03/30 02:20:55;;;;;;;3.50;2.53;;;;;;;10.38;89.99;99897.22;5052442;28;20213;-84
2023/03/30 02:23:24;;;;;;;5.03;2.70;;;;;;;10.40;89.88;99887.28;5052111;28;20731;-84
2023/03/30 02:25:51;;;;;;;6.20;2.80;;;;;;;10.47;90.00;99893.88;5052137;28;20609;-84
2023/03/30 02:28:18;;;;;;;4.17;2.67;;;;;;;10.52;89.95;99877.56;5051981;28;20209;-84
2023/03/30 02:30:46;;;;;;;3.60;2.73;;;;;;;10.54;89.25;99862.31;5051838;28;20205;-84
2023/03/30 02:33:24;;;;;;;4.10;3.10;;;;;;;10.59;89.21;99863.66;5051642;28;20702;-84
2023/03/30 02:36:09;;;;;;;4.17;2.67;;;;;;;10.64;89.00;99866.81;5054290;28;20190;-84
2023/03/30 02:38:54;;;;;;;2.90;2.50;;;;;;;10.67;88.74;99865.75;5054224;28;20194;-84
2023/03/30 02:41:40;;;;;;;4.33;2.60;;;;;;;10.73;88.52;99859.97;5053842;28;20692;-83
2023/03/30 02:44:18;;;;;;;3.60;2.40;;;;;;;10.81;88.33;99841.56;5052290;28;20627;-84
2023/03/30 02:46:59;;;;;;;4.83;2.70;;;;;;;10.88;87.61;99839.28;5051962;28;20215;-84
2023/03/30 02:49:38;;;;;;;5.43;2.70;;;;;;;10.93;86.95;99835.28;5051886;28;20609;-84
2023/03/30 02:52:16;;;;;;;5.83;2.93;;;;;;;10.97;86.74;99825.22;5053685;28;20200;-83
2023/03/30 02:54:49;;;;;;;5.50;2.60;;;;;;;11.01;86.50;99827.53;5051976;28;20194;-84
2023/03/30 02:57:25;;;;;;;5.13;2.43;;;;;;;11.03;85.83;99814.94;5051393;28;20693;-84
2023/03/30 02:59:57;;;;;;;3.77;2.37;;;;;;;11.09;85.65;99819.81;5051271;28;20202;-84
2023/03/30 03:02:30;;;;;;;5.87;2.60;;;;;;;11.12;85.21;99818.69;5051336;28;20580;-83
2023/03/30 03:04:58;;;;;;;6.43;2.93;;;;;;;11.15;84.77;99826.44;5051222;28;20261;-84
2023/03/30 03:07:26;;;;;;;3.53;2.30;;;;;;;11.23;84.43;99824.03;5050724;28;20232;-84
2023/03/30 03:09:53;;;;;;;3.87;2.50;;;;;;;11.29;83.83;99820.03;5051235;28;20289;-83
2023/03/30 03:12:19;;;;;;;3.80;2.50;;;;;;;11.35;83.38;99820.41;5053432;28;20674;-84
2023/03/30 03:14:46;;;;;;;5.13;2.80;;;;;;;11.40;82.87;99817.38;5054622;28;20217;-84
2023/03/30 03:17:20;;;;;;;2.90;2.00;;;;;;;11.45;82.37;99815.19;5054482;28;20579;-84
2023/03/30 03:19:47;;;;;;;3.27;2.10;;;;;;;11.48;81.94;99814.91;5054447;28;20302;-84
2023/03/30 03:22:14;;;;;;;3.37;2.40;;;;;;;11.53;81.71;99812.75;5054219;28;20201;-84
2023/03/30 03:24:40;;;;;;;3.70;2.37;;;;;;;11.54;81.31;99814.44;5054504;28;20202;-84
2023/03/30 03:27:07;;;;;;;3.07;2.27;;;;;;;11.58;80.85;99826.56;5054252;28;20238;-84
2023/03/30 03:29:34;;;;;;;3.40;2.50;;;;;;;11.59;80.71;99827.41;5054147;28;20646;-83
2023/03/30 03:32:00;;;;;;;6.50;2.50;;;;;;;11.60;80.17;99824.63;5054216;28;20242;-84
2023/03/30 03:34:30;;;;;;;4.53;2.50;;;;;;;11.66;79.90;99812.59;5054855;28;20244;-83
2023/03/30 03:36:56;;;;;;;4.60;2.47;;;;;;;11.68;79.65;99807.97;5054750;28;20636;-83
2023/03/30 03:39:23;;;;;;;3.80;2.40;;;;;;;11.70;79.20;99796.22;5054850;28;20203;-83
2023/03/30 03:41:49;;;;;;;4.97;2.73;;;;;;;11.71;78.96;99799.72;5054500;28;20219;-84
2023/03/30 03:44:16;;;;;;;4.63;2.60;;;;;;;11.71;78.78;99784.56;5054254;28;20220;-83
2023/03/30 03:46:43;;;;;;;3.73;2.63;;;;;;;11.74;78.46;99778.16;5054182;28;20697;-83
2023/03/30 03:49:09;;;;;;;6.83;2.83;;;;;;;11.76;78.04;99776.25;5054141;28;20862;-83
2023/03/30 03:51:37;;;;;;;7.30;3.53;;;;;;;11.79;77.77;99781.34;5054122;28;20201;-83
2023/03/30 03:54:03;;;;;;;5.87;3.73;;;;;;;11.80;77.76;99773.19;5054422;28;20242;-83
2023/03/30 03:56:30;;;;;;;6.33;3.80;;;;;;;11.83;77.51;99777.41;5055146;28;20682;-83
2023/03/30 03:58:56;;;;;;;6.33;4.63;;;;;;;11.81;76.93;99777.56;5054215;28;20224;-83
2023/03/30 04:01:23;;;;;;;4.27;3.07;;;;;;;11.85;76.75;99771.94;5054019;28;20217;-84
2023/03/30 04:03:50;;;;;;;6.47;3.50;;;;;;;11.86;76.72;99770.97;5054081;28;20253;-86
2023/03/30 04:06:16;;;;;;;4.83;2.70;;;;;;;11.85;76.72;99758.63;5053804;28;20226;-84
2023/03/30 04:08:44;;;;;;;5.03;2.63;;;;;;;11.85;76.57;99759.47;5054517;28;20201;-84
2023/03/30 04:11:12;;;;;;;6.53;2.33;;;;;;;11.86;76.12;99761.16;5053700;28;20224;-85
2023/03/30 04:13:38;;;;;;;7.47;4.00;;;;;;;11.88;75.91;99748.53;5053449;28;20223;-84
2023/03/30 04:16:06;;;;;;;4.27;2.60;;;;;;;11.89;75.66;99752.91;5053847;28;20215;-84
2023/03/30 04:18:33;;;;;;;3.43;2.77;;;;;;;11.91;75.49;99744.78;5053973;28;20204;-84
2023/03/30 04:21:01;;;;;;;3.77;2.03;;;;;;;11.92;75.26;99741.97;5053538;28;20212;-84
2023/03/30 04:23:29;;;;;;;7.70;2.93;;;;;;;11.93;75.49;99735.69;5053653;28;20230;-84
2023/03/30 04:26:00;;;;;;;4.20;2.47;;;;;;;11.96;74.81;99737.25;5053523;28;20205;-84
2023/03/30 04:28:28;;;;;;;4.83;2.40;;;;;;;11.99;74.54;99731.66;5053392;28;20188;-84
2023/03/30 04:30:58;;;;;;;4.43;2.80;;;;;;;11.98;74.45;99724.63;5053570;28;20215;-84
2023/03/30 04:33:24;;;;;;;4.80;2.47;;;;;;;11.96;74.49;99714.06;5053568;28;20226;-85
2023/03/30 04:35:51;;;;;;;3.67;2.17;;;;;;;11.98;74.29;99704.13;5053394;28;20200;-84
2023/03/30 04:38:21;;;;;;;6.63;2.73;;;;;;;12.00;74.04;99720.81;5053620;28;20576;-85
2023/03/30 04:40:47;;;;;;;5.00;2.23;;;;;;;11.99;74.09;99711.16;5053458;28;20212;-85
2023/03/30 04:43:18;;;;;;;4.00;2.30;;;;;;;11.99;74.09;99703.16;5053383;28;20232;-85
2023/03/30 04:45:48;;;;;;;5.17;1.83;;;;;;;11.99;74.21;99707.63;5053554;28;20242;-85
2023/03/30 04:48:14;;;;;;;5.57;1.90;;;;;;;11.98;74.30;99713.94;5053193;28;20237;-85
2023/03/30 04:50:42;;;;;;;3.17;2.03;;;;;;;11.97;73.88;99720.25;5053441;28;20204;-85
2023/03/30 04:53:09;;;;;;;5.07;2.03;;;;;;;11.98;74.20;99722.81;5053025;28;20247;-84
2023/03/30 04:55:35;;;;;;;3.63;1.90;;;;;;;12.00;73.56;99720.81;5053058;28;20209;-84
2023/03/30 04:58:02;;;;;;;3.23;1.70;;;;;;;12.00;73.88;99717.34;5053144;28;20201;-85
2023/03/30 05:00:30;;;;;;;3.90;2.03;;;;;;;11.98;73.51;99717.47;5052919;28;20209;-84
2023/03/30 05:02:56;;;;;;;3.33;2.00;;;;;;;12.01;73.58;99719.84;5053271;28;20228;-85
2023/03/30 05:05:23;;;;;;;2.60;1.67;;;;;;;12.03;73.47;99714.38;5052903;28;20202;-85
2023/03/30 05:07:50;;;;;;;4.77;1.70;;;;;;;12.02;73.61;99718.88;5055540;28;20237;-86
2023/03/30 05:10:17;;;;;;;3.70;2.00;;;;;;;12.03;73.40;99731.25;5053314;28;20201;-83
2023/03/30 05:12:43;;;;;;;5.03;1.90;;;;;;;12.03;73.38;99719.72;5052396;28;20236;-83
2023/03/30 05:15:10;;;;;;;5.30;1.70;;;;;;;12.06;73.17;99725.66;5052510;28;20205;-83
2023/03/30 05:17:38;;;;;;;3.40;1.70;;;;;;;12.07;73.07;99718.50;5052617;28;20254;-84
2023/03/30 05:20:07;;;;;;;2.57;1.60;;;;;;;12.11;72.92;99720.78;5052465;28;20882;-84
2023/03/30 05:22:34;;;;;;;3.47;1.60;;;;;;;12.15;72.37;99708.88;5052151;28;20375;-84
2023/03/30 05:25:00;;;;;;;5.70;1.77;;;;;;;12.22;72.07;99711.00;5051829;28;20562;-84
2023/03/30 05:27:27;;;;;;;5.10;1.57;;;;;;;12.27;71.76;99712.31;5052518;28;20233;-84
2023/03/30 05:29:54;;;;;;;3.77;1.67;;;;;;;12.30;71.81;99701.38;5052438;28;20212;-84
2023/03/30 05:32:20;;;;;;;4.83;1.50;;;;;;;12.32;71.36;99693.25;5052406;28;20213;-84
2023/03/30 05:34:48;;;;;;;3.00;1.40;;;;;;;12.31;71.24;99703.06;5051832;28;20209;-84
2023/03/30 05:37:15;;;;;;;3.40;1.70;;;;;;;12.33;70.80;99690.44;5052079;28;20216;-84
2023/03/30 05:39:41;;;;;;;2.97;1.43;;;;;;;12.32;70.72;99694.09;5052031;28;20211;-84
2023/03/30 05:42:08;;;;;;;2.40;1.60;;;;;;;12.34;71.13;99697.47;5052397;28;20221;-84
2023/03/30 05:44:34;;;;;;;3.77;1.90;;;;;;;12.38;70.70;99704.22;5052601;28;20222;-84
2023/03/30 05:47:01;;;;;;;4.13;1.57;;;;;;;12.43;70.72;99695.84;5052068;28;20221;-84
2023/03/30 05:49:27;;;;;;;2.93;1.93;;;;;;;12.46;70.47;99701.75;5052312;28;20674;-84
2023/03/30 05:51:55;;;;;;;3.47;1.77;;;;;;;12.47;70.63;99706.13;5052328;28;20206;-84
2023/03/30 05:54:22;;;;;;;7.07;1.33;;;;;;;12.51;70.04;99710.22;5052258;28;20225;-84
2023/03/30 05:56:48;;;;;;;2.67;1.50;;;;;;;12.52;70.22;99705.72;5052006;28;20217;-83
2023/03/30 05:59:15;;;;;;;4.43;1.77;;;;;;;12.62;69.92;99719.13;5052281;28;20205;-86
2023/03/30 06:01:42;;;;;;;5.67;2.13;;;;;;;12.64;69.77;99707.34;5052223;28;20284;-84
2023/03/30 06:04:08;;;;;;;3.10;1.67;;;;;;;12.69;69.84;99717.63;5051979;28;20233;-84
2023/03/30 06:06:35;;;;;;;3.10;1.30;;;;;;;12.73;69.63;99714.53;5051178;28;20213;-84
2023/03/30 06:09:04;;;;;;;5.37;1.47;;;;;;;12.77;69.48;99712.44;5051739;28;20276;-83
2023/03/30 06:11:30;;;;;;;3.80;1.90;;;;;;;12.81;69.00;99709.38;5051913;28;20564;-84
2023/03/30 06:13:57;;;;;;;5.07;2.10;;;;;;;12.85;69.14;99709.97;5051105;28;20233;-84
2023/03/30 06:16:24;;;;;;;4.67;1.90;;;;;;;12.90;68.77;99701.56;5051807;28;20206;-84
2023/03/30 06:18:51;;;;;;;2.90;1.30;;;;;;;12.94;68.56;99690.44;5051261;28;20214;-84
2023/03/30 06:21:17;;;;;;;4.40;1.50;;;;;;;12.95;68.71;99689.47;5051419;28;20213;-84
2023/03/30 06:23:44;;;;;;;3.30;1.50;;;;;;;12.99;68.21;99680.19;5051366;28;20716;-84
2023/03/30 06:26:12;;;;;;;4.03;1.70;;;;;;;13.03;68.31;99688.78;5051365;28;20670;-84
2023/03/30 06:28:39;;;;;;;4.07;1.60;;;;;;;13.07;68.18;99685.72;5051225;28;20221;-84
2023/03/30 06:31:09;;;;;;;4.43;1.63;;;;;;;13.13;67.78;99685.16;5051277;28;20204;-84
2023/03/30 06:33:36;;;;;;;3.07;1.27;;;;;;;13.17;67.86;99680.41;5051160;28;20232;-84
2023/03/30 06:36:03;;;;;;;3.53;1.80;;;;;;;13.20;67.47;99688.16;5051087;28;20201;-83
2023/03/30 06:38:30;;;;;;;2.93;1.47;;;;;;;13.24;67.31;99680.72;5051367;28;20208;-83
2023/03/30 06:40:56;;;;;;;3.17;1.20;;;;;;;13.28;67.37;99671.41;5051585;28;20210;-84
2023/03/30 06:43:25;;;;;;;4.97;1.43;;;;;;;13.33;67.37;99656.66;5051566;28;20222;-84
2023/03/30 06:45:53;;;;;;;4.90;1.60;;;;;;;13.38;67.19;99648.22;5053456;28;20201;-84
2023/03/30 06:48:22;;;;;;;4.67;1.40;;;;;;;13.41;66.57;99661.31;5055406;28;20221;-83
2023/03/30 06:50:49;;;;;;;4.00;1.73;;;;;;;13.45;66.57;99665.38;5055079;28;20210;-84
2023/03/30 06:53:16;;;;;;;5.67;1.60;;;;;;;13.49;66.45;99661.47;5054763;28;20227;-84
2023/03/30 06:55:43;;;;;;;4.63;1.60;;;;;;;13.53;66.26;99665.56;5054927;28;20251;-84
2023/03/30 06:58:10;;;;;;;3.63;1.50;;;;;;;13.57;66.44;99672.31;5055049;28;20212;-83
2023/03/30 07:00:38;;;;;;;4.13;1.43;;;;;;;13.61;66.65;99662.19;5054907;28;20212;-84
2023/03/30 07:03:05;;;;;;;4.90;1.67;;;;;;;13.63;66.38;99670.88;5054848;28;20257;-83
2023/03/30 07:05:32;;;;;;;3.53;1.67;;;;;;;13.69;65.82;99665.84;5054987;28;20287;-84
2023/03/30 07:07:58;;;;;;;4.23;1.33;;;;;;;13.73;65.83;99672.59;5054947;28;20209;-84
2023/03/30 07:10:25;;;;;;;4.00;1.70;;;;;;;13.81;66.16;99671.88;5054969;28;20212;-84
2023/03/30 07:12:51;;;;;;;5.37;1.40;;;;;;;13.86;65.56;99674.97;5055050;28;20225;-84
2023/03/30 07:15:18;;;;;;;6.43;1.63;;;;;;;13.90;65.53;99677.25;5054821;28;20206;-84
2023/03/30 07:17:46;;;;;;;3.73;1.47;;;;;;;13.97;64.92;99669.50;5054690;28;20225;-84
2023/03/30 07:20:15;;;;;;;3.63;1.20;;;;;;;14.06;64.90;99673.13;5054853;28;20567;-83
2023/03/30 07:22:41;;;;;;;3.13;1.20;;;;;;;14.11;64.98;99665.53;5054933;28;20237;-84
2023/03/30 07:25:08;;;;;;;5.50;1.33;;;;;;;14.14;65.01;99682.16;5054865;28;20633;-83
2023/03/30 07:27:36;;;;;;;2.70;1.33;;;;;;;14.20;64.47;99681.56;5054720;28;20202;-84
2023/03/30 07:30:02;;;;;;;3.33;1.20;;;;;;;14.25;64.81;99686.50;5054834;28;20198;-83
2023/03/30 07:32:29;;;;;;;5.10;1.37;;;;;;;14.25;64.40;99684.66;5055019;28;20215;-83
2023/03/30 07:34:57;;;;;;;2.80;1.47;;;;;;;14.28;64.56;99680.84;5054497;28;20555;-83
2023/03/30 07:37:24;;;;;;;4.57;1.30;;;;;;;14.30;64.11;99678.88;5054765;28;20230;-84
2023/03/30 07:39:51;;;;;;;3.47;1.73;;;;;;;14.34;64.04;99677.56;5054449;28;20213;-84
2023/03/30 07:42:17;;;;;;;4.90;1.57;;;;;;;14.36;64.27;99680.97;5054565;28;20282;-83
2023/03/30 07:44:44;;;;;;;7.07;1.70;;;;;;;14.40;64.08;99682.41;5053729;28;20212;-84
2023/03/30 07:47:10;;;;;;;1.87;1.57;;;;;;;14.44;63.90;99683.81;5054157;28;20201;-84
2023/03/30 07:49:37;;;;;;;4.27;1.57;;;;;;;14.46;64.22;99667.59;5054230;28;20209;-84
2023/03/30 07:52:06;;;;;;;6.10;1.90;;;;;;;14.50;63.63;99677.03;5054078;28;20194;-83
2023/03/30 07:54:32;;;;;;;4.63;1.97;;;;;;;14.54;63.78;99679.25;5054141;28;20221;-84
2023/03/30 07:56:59;;;;;;;5.27;1.60;;;;;;;14.59;63.47;99677.00;5053111;28;20201;-83
2023/03/30 07:59:26;;;;;;;3.53;1.50;;;;;;;14.65;63.58;99683.59;5054086;28;20780;-84
2023/03/30 08:01:53;;;;;;;5.43;2.00;;;;;;;14.72;63.54;99689.22;5053925;28;20207;-83
2023/03/30 08:04:20;;;;;;;5.93;1.63;;;;;;;14.76;63.57;99695.97;5053972;28;20321;-83
2023/03/30 08:06:48;;;;;;;4.80;1.73;;;;;;;14.82;63.51;99688.19;5053746;28;20210;-84
2023/03/30 08:09:15;;;;;;;7.53;2.27;;;;;;;14.93;63.69;99689.81;5053655;28;20198;-83
2023/03/30 08:11:42;;;;;;;5.67;2.67;;;;;;;15.08;63.65;99692.84;5053767;28;20201;-83
2023/03/30 08:14:08;;;;;;;4.53;1.90;;;;;;;15.24;63.99;99690.38;5053958;28;20233;-84
2023/03/30 08:16:35;;;;;;;5.37;1.93;;;;;;;15.41;63.32;99691.38;5053797;28;20698;-84
2023/03/30 08:19:01;;;;;;;3.87;1.80;;;;;;;15.55;62.65;99689.09;5054116;28;20226;-84
2023/03/30 08:21:28;;;;;;;4.93;2.23;;;;;;;15.67;62.37;99694.22;5054054;28;20210;-84
2023/03/30 08:23:57;;;;;;;3.57;1.90;;;;;;;15.78;61.82;99692.13;5053621;28;20242;-84
2023/03/30 08:26:27;;;;;;;5.83;2.00;;;;;;;15.89;61.63;99699.97;5053870;28;20687;-83
2023/03/30 08:28:54;;;;;;;4.17;2.13;;;;;;;16.03;61.33;99697.75;5053927;28;20215;-84
2023/03/30 08:31:20;;;;;;;3.67;2.00;;;;;;;16.15;60.57;99694.63;5053770;28;20216;-84
2023/03/30 08:33:47;;;;;;;5.90;2.20;;;;;;;16.23;60.23;99686.66;5053803;28;20227;-83
2023/03/30 08:36:14;;;;;;;3.80;2.03;;;;;;;16.28;59.94;99681.66;5054257;28;20705;-84
2023/03/30 08:38:41;;;;;;;7.40;2.10;;;;;;;16.31;59.83;99691.22;5053693;28;20255;-83
2023/03/30 08:41:37;;;;;;;4.53;2.20;;;;;;;16.34;59.67;99690.94;5053598;28;20213;-84
2023/03/30 08:44:11;;;;;;;4.93;1.70;;;;;;;16.46;59.88;99687.00;5053961;28;20235;-84
2023/03/30 08:46:39;;;;;;;7.70;2.10;;;;;;;16.56;59.24;99693.09;5053392;28;20712;-84
2023/03/30 08:49:14;;;;;;;6.53;2.40;;;;;;;16.66;58.45;99684.94;5053456;28;20207;-84
2023/03/30 08:51:41;;;;;;;3.20;1.67;;;;;;;16.74;58.49;99676.94;5053269;28;20186;-84
2023/03/30 08:54:14;;;;;;;7.20;2.33;;;;;;;16.85;58.25;99689.25;5053044;28;20295;-84
2023/03/30 08:56:48;;;;;;;6.73;1.80;;;;;;;17.03;57.74;99676.53;5052698;28;20199;-84
2023/03/30 08:59:24;;;;;;;5.47;1.93;;;;;;;17.10;57.74;99679.44;5052902;28;20210;-84
2023/03/30 09:01:55;;;;;;;4.13;1.87;;;;;;;17.15;57.05;99669.88;5052736;28;20197;-84
2023/03/30 09:04:33;;;;;;;5.70;2.33;;;;;;;17.18;56.90;99666.03;5054943;28;20719;-84
2023/03/30 09:07:06;;;;;;;5.57;2.20;;;;;;;17.20;56.61;99670.22;5054453;28;20218;-84
2023/03/30 09:09:43;;;;;;;4.53;1.93;;;;;;;17.22;56.10;99672.75;5053783;28;20194;-84
2023/03/30 09:12:19;;;;;;;5.33;2.03;;;;;;;17.19;56.52;99676.63;5052023;28;20199;-84
2023/03/30 09:14:52;;;;;;;4.53;1.73;;;;;;;17.17;56.48;99675.13;5051997;28;20228;-84
2023/03/30 09:17:23;;;;;;;4.77;1.73;;;;;;;17.12;56.38;99662.13;5052510;28;20828;-84
2023/03/30 09:19:56;;;;;;;4.20;1.53;;;;;;;17.17;56.64;99669.72;5052831;28;20197;-84
2023/03/30 09:22:26;;;;;;;7.53;1.80;;;;;;;17.24;56.02;99663.50;5052547;28;20221;-84
2023/03/30 09:24:54;;;;;;;4.60;1.90;;;;;;;17.25;56.14;99657.13;5052535;28;20218;-84
2023/03/30 09:27:33;;;;;;;4.57;1.80;;;;;;;17.25;55.50;99657.13;5052052;28;20209;-84
2023/03/30 09:30:05;;;;;;;3.87;1.53;;;;;;;17.19;55.32;99668.56;5052179;28;20289;-83
2023/03/30 09:32:37;;;;;;;4.30;1.60;;;;;;;17.13;55.53;99661.13;5052570;28;20206;-84
2023/03/30 09:35:13;;;;;;;11.23;2.00;;;;;;;17.06;55.61;99675.38;5051862;28;20193;-84
2023/03/30 09:37:40;;;;;;;3.83;1.77;;;;;;;17.07;56.01;99669.00;5052349;28;20225;-85
2023/03/30 09:40:22;;;;;;;4.03;1.40;;;;;;;17.07;56.32;99667.16;5052104;28;20208;-85
2023/03/30 09:42:58;;;;;;;6.23;2.27;;;;;;;17.12;56.78;99667.53;5052119;28;20241;-85
2023/03/30 09:45:28;;;;;;;5.00;1.70;;;;;;;17.18;56.86;99668.72;5051822;28;20189;-85
2023/03/30 09:47:55;;;;;;;4.67;1.90;;;;;;;17.24;57.16;99671.59;5052800;28;20196;-85
2023/03/30 09:50:25;;;;;;;3.20;1.50;;;;;;;17.29;57.19;99657.66;5052242;28;20209;-85
2023/03/30 09:52:58;;;;;;;5.60;1.90;;;;;;;17.36;56.90;99664.06;5052743;28;20313;-82
2023/03/30 09:55:28;;;;;;;3.60;1.50;;;;;;;17.42;56.85;99657.16;5052054;28;20193;-84
2023/03/30 09:58:10;;;;;;;4.57;1.87;;;;;;;17.48;56.77;99651.97;5052247;28;20731;-86
2023/03/30 10:00:38;;;;;;;5.47;1.67;;;;;;;17.52;56.57;99658.72;5052480;28;20709;-84
2023/03/30 10:03:10;;;;;;;2.67;1.20;;;;;;;17.54;56.09;99669.31;5049123;28;20235;-84
2023/03/30 10:05:40;;;;;;;3.77;1.37;;;;;;;17.54;55.67;99654.00;5045533;28;20219;-85
2023/03/30 10:08:20;;;;;;;2.60;1.40;;;;;;;17.50;55.17;99655.34;5039233;28;20294;-85
2023/03/30 10:10:53;;;;;;;4.27;1.30;;;;;;;17.42;54.92;99649.94;5050358;28;20289;-85
2023/03/30 10:13:28;;;;;;;5.10;1.80;;;;;;;17.42;55.17;99657.16;5053136;28;20230;-85
2023/03/30 10:15:55;;;;;;;3.83;1.70;;;;;;;17.34;55.47;99655.31;5048860;28;20195;-85
2023/03/30 10:18:26;;;;;;;5.40;1.87;;;;;;;17.25;54.92;99649.06;5050460;28;20232;-85
2023/03/30 10:21:04;;;;;;;4.50;1.87;;;;;;;17.23;55.37;99647.53;5053225;28;20198;-86
2023/03/30 10:23:33;;;;;;;3.53;1.63;;;;;;;17.19;55.52;99654.28;5048765;28;20226;-85
2023/03/30 10:26:02;;;;;;;3.37;2.00;;;;;;;17.15;55.61;99650.22;5057130;28;20275;-84
2023/03/30 10:28:32;;;;;;;4.63;1.97;;;;;;;17.10;55.81;99650.69;5057228;28;20212;-85
2023/03/30 10:31:02;;;;;;;5.20;2.30;;;;;;;17.06;55.99;99641.25;5052247;28;20204;-84
2023/03/30 10:33:30;;;;;;;9.50;2.47;;;;;;;17.02;56.28;99656.88;5056724;28;20235;-85
2023/03/30 10:36:00;;;;;;;12.83;3.43;;;;;;;16.98;57.39;99713.88;5055940;28;20202;-82
2023/03/30 10:38:32;;;;;;;8.03;2.77;;;;;;;16.88;61.21;99740.88;5057954;28;20220;-84
2023/03/30 10:41:02;;;;;;;4.30;1.70;;;;;;;16.63;61.09;99699.56;5047158;28;20212;-83
2023/03/30 10:43:37;;;;;;;2.70;1.43;;;;;;;16.30;61.86;99692.25;5060775;28;20225;-83
2023/03/30 10:46:12;;;;;;;3.73;1.53;;;;;;;16.09;62.94;99689.06;5058140;28;20203;-82
2023/03/30 10:48:48;;;;;;;6.13;1.73;;;;;;;15.94;64.80;99692.28;5055315;28;20199;-82
2023/03/30 10:51:25;;;;;;;5.33;1.97;;;;;;;15.87;66.39;99698.44;5056374;28;20610;-82
2023/03/30 10:54:00;;;;;;;4.27;2.30;;;;;;;15.82;68.05;99706.94;5057601;28;20600;-82
2023/03/30 10:56:34;;;;;;;3.90;2.20;;;;;;;15.79;69.31;99712.63;5056973;28;20195;-82
2023/03/30 10:59:27;;;;;;;5.80;2.43;;;;;;;15.74;70.71;99744.47;5056529;28;20274;-82
2023/03/30 11:02:15;;;;;;;3.70;1.47;;;;;;;15.48;69.57;99762.25;5055660;28;20203;-84
2023/03/30 11:04:45;;;;;;;4.47;1.10;;;;;;;15.20;69.45;99772.16;5067859;28;20210;-83
2023/03/30 11:07:20;;;;;;;3.13;0.87;;;;;;;14.88;69.98;99751.94;5066969;28;20753;-84
2023/03/30 11:09:53;;;;;;;4.63;1.17;;;;;;;14.63;71.03;99746.38;5063808;28;20220;-83
2023/03/30 11:12:22;;;;;;;3.33;1.10;;;;;;;14.44;72.55;99741.91;5064851;28;20197;-83
2023/03/30 11:14:54;;;;;;;2.30;0.50;;;;;;;14.33;73.22;99745.53;5064481;28;20213;-83
2023/03/30 11:17:26;;;;;;;5.97;1.33;;;;;;;14.27;74.31;99739.91;5065123;28;20709;-83
2023/03/30 11:19:56;;;;;;;3.40;1.13;;;;;;;14.22;75.74;99732.31;5063296;28;20225;-83
2023/03/30 11:22:30;;;;;;;1.47;1.10;;;;;;;14.24;76.82;99741.88;5063828;28;20213;-83
2023/03/30 11:24:58;;;;;;;2.60;1.00;;;;;;;14.28;77.25;99741.63;5059174;28;20249;-82
2023/03/30 11:27:29;;;;;;;3.63;1.17;;;;;;;14.30;77.64;99732.44;5057927;28;20276;-83
2023/03/30 11:30:02;;;;;;;5.13;1.37;;;;;;;14.29;75.23;99746.81;5057718;28;20687;-83
2023/03/30 11:32:36;;;;;;;2.80;0.90;;;;;;;14.29;75.61;99744.16;5055427;28;20266;-84
2023/03/30 11:35:11;;;;;;;2.10;1.20;;;;;;;14.29;75.39;99748.66;5058611;28;20196;-83
2023/03/30 11:37:44;;;;;;;3.23;1.53;;;;;;;14.24;74.94;99759.78;5059485;28;20209;-83
2023/03/30 11:40:16;;;;;;;5.10;1.40;;;;;;;14.23;74.26;99744.72;5055987;28;20221;-82
2023/03/30 11:42:43;;;;;;;4.40;1.40;;;;;;;14.15;73.35;99758.78;5054711;28;20236;-80
2023/03/30 11:45:20;;;;;;;4.67;1.40;;;;;;;14.18;73.80;99744.28;5053657;28;20209;-79
2023/03/30 11:48:01;;;;;;;4.97;1.63;;;;;;;14.22;73.94;99740.34;5054178;28;20201;-79